Time;durP1;ratioP1;P1;durP2;ratioP2;P2;SDS_P1;SDS_P2;PMS_P1;PMS_P2;Temp;Humidity;BMP_temperature;BMP_pressure;BME280_temperature;BME280_humidity;BME280_pressure;Samples;Min_cycle;Max_cycle;Signal;HPM_P1;HPM_P2
2023/11/24 00:02:05;;;;;;;5.20;4.90;;;21.70;62.60;;;;;;5023250;28;20476;-66
2023/11/24 00:04:32;;;;;;;4.83;4.73;;;21.70;62.70;;;;;;5022326;28;20905;-66
2023/11/24 00:06:59;;;;;;;4.93;4.83;;;21.70;62.70;;;;;;5019697;28;20446;-66
2023/11/24 00:09:27;;;;;;;5.13;5.03;;;21.70;62.80;;;;;;5019774;28;20489;-66
2023/11/24 00:11:54;;;;;;;5.33;4.93;;;21.70;62.80;;;;;;5011845;28;20533;-66
2023/11/24 00:14:23;;;;;;;4.97;4.77;;;21.60;62.80;;;;;;5019636;28;20519;-66
2023/11/24 00:16:50;;;;;;;5.23;4.87;;;21.60;62.90;;;;;;5022532;28;20495;-66
2023/11/24 00:19:17;;;;;;;5.57;5.37;;;21.60;62.90;;;;;;5023005;28;20499;-66
2023/11/24 00:21:46;;;;;;;4.60;4.40;;;21.60;62.80;;;;;;5020561;28;20932;-66
2023/11/24 00:24:14;;;;;;;4.70;4.60;;;21.60;62.80;;;;;;5019353;28;20482;-67
2023/11/24 00:26:41;;;;;;;5.00;4.80;;;21.60;62.80;;;;;;5022271;28;20988;-67
2023/11/24 00:29:08;;;;;;;3.77;3.77;;;21.60;62.90;;;;;;5027178;28;20453;-67
2023/11/24 00:31:37;;;;;;;5.10;4.90;;;21.60;62.90;;;;;;5025523;28;20540;-67
2023/11/24 00:34:07;;;;;;;4.83;4.67;;;21.60;62.90;;;;;;5023453;28;20516;-67
2023/11/24 00:36:35;;;;;;;4.70;4.60;;;21.60;62.90;;;;;;5023946;28;20449;-67
2023/11/24 00:39:04;;;;;;;4.93;4.73;;;21.60;62.90;;;;;;5026636;28;20536;-67
2023/11/24 00:41:31;;;;;;;4.70;4.43;;;21.60;62.90;;;;;;5026036;28;20473;-67
2023/11/24 00:44:01;;;;;;;4.60;4.40;;;21.60;62.90;;;;;;5026242;28;20441;-67
2023/11/24 00:46:29;;;;;;;4.80;4.60;;;21.60;62.90;;;;;;5026593;28;20449;-67
2023/11/24 00:48:57;;;;;;;4.67;4.27;;;21.60;62.90;;;;;;5023162;28;20453;-67
2023/11/24 00:51:25;;;;;;;4.47;4.20;;;21.60;63.00;;;;;;5023040;28;20445;-67
2023/11/24 00:53:52;;;;;;;5.03;4.73;;;21.50;62.90;;;;;;5025879;28;20476;-67
2023/11/24 00:56:19;;;;;;;4.70;4.60;;;21.50;62.90;;;;;;5026297;28;20942;-66
2023/11/24 00:58:46;;;;;;;4.73;4.63;;;21.50;62.90;;;;;;5023744;28;20444;-67
2023/11/24 01:01:13;;;;;;;5.40;5.10;;;21.50;62.90;;;;;;5022843;28;20508;-67
2023/11/24 01:03:40;;;;;;;4.90;4.70;;;21.50;62.80;;;;;;5024158;28;20442;-67
2023/11/24 01:06:09;;;;;;;5.30;5.00;;;21.50;62.90;;;;;;5026006;28;20504;-67
2023/11/24 01:08:36;;;;;;;4.63;4.43;;;21.50;62.80;;;;;;5025104;28;20441;-67
2023/11/24 01:11:03;;;;;;;4.50;4.30;;;21.50;62.90;;;;;;5022660;28;20444;-67
2023/11/24 01:13:32;;;;;;;4.23;4.10;;;21.50;63.00;;;;;;5022664;28;20496;-68
2023/11/24 01:15:59;;;;;;;5.43;5.07;;;21.50;63.00;;;;;;5026015;28;21016;-67
2023/11/24 01:18:27;;;;;;;4.80;4.53;;;21.50;63.10;;;;;;5025610;28;20503;-67
2023/11/24 01:20:54;;;;;;;4.93;4.53;;;21.50;63.10;;;;;;5022253;28;20441;-67
2023/11/24 01:23:23;;;;;;;4.40;4.23;;;21.50;63.10;;;;;;5022576;28;20538;-67
2023/11/24 01:25:50;;;;;;;4.27;4.17;;;21.50;63.20;;;;;;5024776;28;20996;-67
2023/11/24 01:28:17;;;;;;;3.90;3.80;;;21.50;63.20;;;;;;5025821;28;20504;-67
2023/11/24 01:30:44;;;;;;;5.00;4.70;;;21.50;63.20;;;;;;5023733;28;20445;-67
2023/11/24 01:33:11;;;;;;;4.57;4.33;;;21.50;63.20;;;;;;5022432;28;20448;-67
2023/11/24 01:35:38;;;;;;;4.47;4.30;;;21.50;63.30;;;;;;5022875;28;20524;-68
2023/11/24 01:38:05;;;;;;;4.97;4.77;;;21.50;63.30;;;;;;5024508;28;20836;-67
2023/11/24 01:40:34;;;;;;;4.53;4.40;;;21.50;63.30;;;;;;5025340;28;20445;-68
2023/11/24 01:43:01;;;;;;;4.23;4.13;;;21.50;63.30;;;;;;5022228;28;20516;-67
2023/11/24 01:45:28;;;;;;;4.90;4.70;;;21.50;63.30;;;;;;5021725;28;21011;-67
2023/11/24 01:47:55;;;;;;;4.47;4.33;;;21.50;63.40;;;;;;5025023;28;20480;-67
2023/11/24 01:50:22;;;;;;;4.30;3.97;;;21.50;63.30;;;;;;5025274;28;20441;-68
2023/11/24 01:52:50;;;;;;;4.50;4.30;;;21.50;63.30;;;;;;5022687;28;20528;-67
2023/11/24 01:55:17;;;;;;;5.20;5.00;;;21.50;63.30;;;;;;5021711;28;20458;-68
2023/11/24 01:57:49;;;;;;;5.50;5.30;;;21.50;63.40;;;;;;5023489;28;20442;-67
2023/11/24 02:00:18;;;;;;;4.57;4.40;;;21.50;63.30;;;;;;5025196;28;20445;-67
2023/11/24 02:02:45;;;;;;;5.10;4.80;;;21.50;63.30;;;;;;5023060;28;20817;-67
2023/11/24 02:05:13;;;;;;;4.10;4.00;;;21.50;63.40;;;;;;5021548;28;20486;-67
2023/11/24 02:07:41;;;;;;;4.37;4.17;;;21.40;63.30;;;;;;5022832;28;21000;-67
2023/11/24 02:10:11;;;;;;;4.53;4.20;;;21.40;63.30;;;;;;5025006;28;20444;-67
2023/11/24 02:12:38;;;;;;;4.60;4.50;;;21.50;63.50;;;;;;5023911;28;20441;-68
2023/11/24 02:15:08;;;;;;;4.43;4.23;;;21.50;63.50;;;;;;5021337;28;20872;-68
2023/11/24 02:17:36;;;;;;;4.50;4.37;;;21.40;63.30;;;;;;5021736;28;20449;-68
2023/11/24 02:20:08;;;;;;;4.73;4.53;;;21.40;63.30;;;;;;5024754;28;20449;-67
2023/11/24 02:22:39;;;;;;;4.73;4.43;;;21.40;63.30;;;;;;5024107;28;20442;-68
2023/11/24 02:25:07;;;;;;;4.30;4.20;;;21.50;63.40;;;;;;5021110;28;20586;-67
2023/11/24 02:27:34;;;;;;;4.17;3.97;;;21.40;63.30;;;;;;5021431;28;21193;-68
2023/11/24 02:30:01;;;;;;;4.47;4.37;;;21.40;63.30;;;;;;5024762;28;20499;-67
2023/11/24 02:32:29;;;;;;;4.40;4.20;;;21.40;63.20;;;;;;5024422;28;20463;-67
2023/11/24 02:34:56;;;;;;;3.90;3.80;;;21.40;63.20;;;;;;5021036;28;20492;-68
2023/11/24 02:37:23;;;;;;;5.00;4.60;;;21.40;63.20;;;;;;5020978;28;20496;-67
2023/11/24 02:39:51;;;;;;;5.10;4.80;;;21.40;63.20;;;;;;5023213;28;20504;-68
2023/11/24 02:42:18;;;;;;;4.50;4.40;;;21.40;63.30;;;;;;5024238;28;20455;-67
2023/11/24 02:44:45;;;;;;;5.63;4.60;;;21.40;63.30;;;;;;5022401;28;20469;-68
2023/11/24 02:47:12;;;;;;;4.73;4.50;;;21.40;63.30;;;;;;5020886;28;20450;-67
2023/11/24 02:49:39;;;;;;;5.30;5.00;;;21.40;63.30;;;;;;5021484;28;20516;-68
2023/11/24 02:52:07;;;;;;;4.20;4.10;;;21.40;63.30;;;;;;5024228;28;20495;-67
2023/11/24 02:54:34;;;;;;;4.53;4.33;;;21.40;63.30;;;;;;5023754;28;20476;-67
2023/11/24 02:57:03;;;;;;;4.43;4.33;;;21.40;63.20;;;;;;5020663;28;20971;-67
2023/11/24 02:59:30;;;;;;;3.87;3.87;;;21.40;63.10;;;;;;5020620;28;20497;-68
2023/11/24 03:01:57;;;;;;;4.20;4.10;;;21.40;63.20;;;;;;5023635;28;20964;-67
2023/11/24 03:04:24;;;;;;;4.33;4.10;;;21.40;63.10;;;;;;5024080;28;20501;-67
2023/11/24 03:06:52;;;;;;;4.87;4.57;;;21.40;63.10;;;;;;5022742;28;20492;-66
2023/11/24 03:09:24;;;;;;;4.50;4.20;;;21.40;63.10;;;;;;5023976;28;20449;-67
2023/11/24 03:11:52;;;;;;;4.40;4.20;;;21.40;63.10;;;;;;5021484;28;20446;-68
2023/11/24 03:14:22;;;;;;;4.60;4.30;;;21.40;63.10;;;;;;5020286;28;20565;-67
2023/11/24 03:16:49;;;;;;;4.47;4.37;;;21.40;63.00;;;;;;5022327;28;20526;-67
2023/11/24 03:19:16;;;;;;;4.53;4.23;;;21.40;63.10;;;;;;5023850;28;20479;-68
2023/11/24 03:21:44;;;;;;;4.77;4.57;;;21.40;63.10;;;;;;5022279;28;20816;-67
2023/11/24 03:24:11;;;;;;;4.33;4.23;;;21.40;63.10;;;;;;5020289;28;20500;-67
2023/11/24 03:26:38;;;;;;;4.30;4.20;;;21.30;63.00;;;;;;5020592;28;20557;-68
2023/11/24 03:29:05;;;;;;;4.43;4.33;;;21.40;63.20;;;;;;5023691;28;20473;-67
2023/11/24 03:31:33;;;;;;;4.23;4.03;;;21.40;63.20;;;;;;5023566;28;20829;-67
2023/11/24 03:34:01;;;;;;;4.77;4.40;;;21.40;63.10;;;;;;5023531;28;20489;-67
2023/11/24 03:36:28;;;;;;;4.60;4.50;;;21.40;63.00;;;;;;5023466;28;20976;-67
2023/11/24 03:38:55;;;;;;;3.90;3.80;;;21.40;63.00;;;;;;5020703;28;20473;-67
2023/11/24 03:41:22;;;;;;;4.50;4.20;;;21.40;63.00;;;;;;5020073;28;20477;-67
2023/11/24 03:43:48;;;;;;;4.90;4.70;;;21.30;62.80;;;;;;5021813;28;20481;-67
2023/11/24 03:46:15;;;;;;;4.47;4.27;;;21.30;62.80;;;;;;5023222;28;20563;-67
2023/11/24 03:48:44;;;;;;;4.23;4.03;;;21.40;62.90;;;;;;5022301;28;20480;-67
2023/11/24 03:51:11;;;;;;;4.43;4.30;;;21.40;62.90;;;;;;5020154;28;20438;-66
2023/11/24 03:53:38;;;;;;;4.70;4.50;;;21.40;62.80;;;;;;5020266;28;20442;-67
2023/11/24 03:56:06;;;;;;;4.00;3.90;;;21.30;62.70;;;;;;5023316;28;20457;-67
2023/11/24 03:58:33;;;;;;;4.70;4.50;;;21.40;62.70;;;;;;5023238;28;20942;-66
2023/11/24 04:01:01;;;;;;;4.87;4.70;;;21.30;62.70;;;;;;5019795;28;20474;-67
2023/11/24 04:03:28;;;;;;;5.23;5.03;;;21.30;62.60;;;;;;5024065;28;20536;-67
2023/11/24 04:05:56;;;;;;;5.13;4.90;;;21.30;62.70;;;;;;5026322;28;20521;-67
2023/11/24 04:08:23;;;;;;;4.60;4.40;;;21.30;62.60;;;;;;5027302;28;20479;-67
2023/11/24 04:10:50;;;;;;;4.57;4.40;;;21.30;62.50;;;;;;5025215;28;20476;-68
2023/11/24 04:13:17;;;;;;;5.03;4.93;;;21.30;62.40;;;;;;5023811;28;20470;-68
2023/11/24 04:15:44;;;;;;;5.13;4.93;;;21.30;62.50;;;;;;5024538;28;20520;-67
2023/11/24 04:18:10;;;;;;;5.07;4.87;;;21.30;62.50;;;;;;5027201;28;20464;-67
2023/11/24 04:20:37;;;;;;;5.83;5.43;;;21.30;62.40;;;;;;5026839;28;20472;-70
2023/11/24 04:23:07;;;;;;;5.20;4.90;;;21.30;63.20;;;;;;5023693;28;20480;-69
2023/11/24 04:25:34;;;;;;;5.07;4.87;;;21.30;62.40;;;;;;5023529;28;20583;-70
2023/11/24 04:28:01;;;;;;;4.33;4.20;;;21.30;62.40;;;;;;5026764;28;20471;-67
2023/11/24 04:30:27;;;;;;;4.70;4.60;;;21.30;62.40;;;;;;5026921;28;20500;-68
2023/11/24 04:32:55;;;;;;;4.40;4.23;;;21.30;62.40;;;;;;5024619;28;20445;-67
2023/11/24 04:35:22;;;;;;;4.87;4.67;;;21.30;62.40;;;;;;5023537;28;21004;-67
2023/11/24 04:37:49;;;;;;;4.43;4.30;;;21.30;62.40;;;;;;5024957;28;20883;-67
2023/11/24 04:40:19;;;;;;;4.43;4.33;;;21.30;62.40;;;;;;5026856;28;20520;-67
2023/11/24 04:42:46;;;;;;;4.20;4.10;;;21.30;62.30;;;;;;5025392;28;20437;-67
2023/11/24 04:45:13;;;;;;;4.67;4.57;;;21.30;62.30;;;;;;5023188;28;20894;-67
2023/11/24 04:47:40;;;;;;;4.40;4.30;;;21.20;62.10;;;;;;5023689;28;20470;-67
2023/11/24 04:50:08;;;;;;;4.83;4.63;;;21.30;62.20;;;;;;5026569;28;20469;-67
2023/11/24 04:52:35;;;;;;;5.27;5.07;;;21.30;62.00;;;;;;5026613;28;20496;-67
2023/11/24 04:55:03;;;;;;;4.37;4.27;;;21.30;61.90;;;;;;5022796;28;20994;-68
2023/11/24 04:57:33;;;;;;;4.33;4.13;;;21.30;61.80;;;;;;5022949;28;20442;-67
2023/11/24 05:00:00;;;;;;;4.67;4.50;;;21.30;61.80;;;;;;5025796;28;20591;-67
2023/11/24 05:02:27;;;;;;;4.20;4.10;;;21.30;61.60;;;;;;5026497;28;20469;-67
2023/11/24 05:04:55;;;;;;;4.27;4.17;;;21.30;61.60;;;;;;5023955;28;20468;-68
2023/11/24 05:07:23;;;;;;;5.57;5.37;;;21.30;61.60;;;;;;5022731;28;20482;-67
2023/11/24 05:09:50;;;;;;;5.20;4.93;;;21.30;61.70;;;;;;5024342;28;20528;-67
2023/11/24 05:12:17;;;;;;;4.50;4.40;;;21.30;61.70;;;;;;5026292;28;20476;-67
2023/11/24 05:14:46;;;;;;;4.40;4.30;;;21.30;61.70;;;;;;5025320;28;20507;-67
2023/11/24 05:17:13;;;;;;;5.43;5.13;;;21.30;61.60;;;;;;5022738;28;20438;-67
2023/11/24 05:19:40;;;;;;;5.13;5.03;;;21.30;61.60;;;;;;5022760;28;20448;-67
2023/11/24 05:22:07;;;;;;;5.43;5.23;;;21.30;61.60;;;;;;5025951;28;20439;-67
2023/11/24 05:24:34;;;;;;;5.17;5.07;;;21.30;61.60;;;;;;5025917;28;20489;-67
2023/11/24 05:27:01;;;;;;;5.30;4.90;;;21.30;61.60;;;;;;5022803;28;20836;-66
2023/11/24 05:29:30;;;;;;;5.00;4.90;;;21.30;61.60;;;;;;5022381;28;20493;-68
2023/11/24 05:31:59;;;;;;;5.00;4.90;;;21.30;61.60;;;;;;5024781;28;20446;-66
2023/11/24 05:34:25;;;;;;;4.73;4.60;;;21.30;61.40;;;;;;5025660;28;20911;-67
2023/11/24 05:36:53;;;;;;;5.13;5.00;;;21.30;61.40;;;;;;5023739;28;20473;-68
2023/11/24 05:39:19;;;;;;;4.73;4.63;;;21.30;61.40;;;;;;5022428;28;20450;-68
2023/11/24 05:41:46;;;;;;;5.60;5.40;;;21.30;61.50;;;;;;5023302;28;20473;-67
2023/11/24 05:44:15;;;;;;;4.50;4.40;;;21.30;61.50;;;;;;5025327;28;21002;-67
2023/11/24 05:46:42;;;;;;;4.87;4.77;;;21.30;61.60;;;;;;5024994;28;20564;-67
2023/11/24 05:49:10;;;;;;;4.73;4.63;;;21.30;61.60;;;;;;5022036;28;20478;-68
2023/11/24 05:51:37;;;;;;;5.40;5.30;;;21.40;61.80;;;;;;5021997;28;20484;-67
2023/11/24 05:54:04;;;;;;;5.37;4.93;;;21.40;61.70;;;;;;5024942;28;20500;-67
2023/11/24 05:56:31;;;;;;;5.70;5.40;;;21.40;61.80;;;;;;5025486;28;20469;-66
2023/11/24 05:58:58;;;;;;;8.38;7.85;;;21.40;62.10;;;;;;5022536;28;20465;-68
2023/11/24 06:01:24;;;;;;;6.07;5.50;;;21.40;63.20;;;;;;5021851;28;20322;-69
2023/11/24 06:03:51;;;;;;;5.90;5.57;;;21.40;65.00;;;;;;5022989;28;20446;-69
2023/11/24 06:06:20;;;;;;;5.80;5.30;;;21.40;64.80;;;;;;5024948;28;20564;-68
2023/11/24 06:08:46;;;;;;;6.23;5.73;;;21.40;64.20;;;;;;5024105;28;20820;-69
2023/11/24 06:11:17;;;;;;;6.43;5.90;;;21.40;63.80;;;;;;5021542;28;20442;-69
2023/11/24 06:13:44;;;;;;;6.33;5.93;;;21.40;63.70;;;;;;5021799;28;20456;-68
2023/11/24 06:16:12;;;;;;;6.43;5.87;;;21.40;63.60;;;;;;5024926;28;20437;-68
2023/11/24 06:18:39;;;;;;;7.33;6.73;;;21.40;63.30;;;;;;5024899;28;20477;-68
2023/11/24 06:21:08;;;;;;;5.90;5.50;;;21.40;63.20;;;;;;5021349;28;20434;-68
2023/11/24 06:23:36;;;;;;;11.13;5.87;;;21.40;63.00;;;;;;5021289;28;20930;-68
2023/11/24 06:26:03;;;;;;;5.53;5.23;;;21.40;62.90;;;;;;5023512;28;20516;-68
2023/11/24 06:28:30;;;;;;;6.07;5.47;;;21.40;62.80;;;;;;5024562;28;20809;-68
2023/11/24 06:30:57;;;;;;;5.57;5.37;;;21.40;62.60;;;;;;5022585;28;20851;-68
2023/11/24 06:33:25;;;;;;;5.90;5.40;;;21.40;62.50;;;;;;5021115;28;20905;-68
2023/11/24 06:35:53;;;;;;;6.23;5.67;;;21.40;62.40;;;;;;5022312;28;20481;-68
2023/11/24 06:38:20;;;;;;;5.73;5.53;;;21.40;62.30;;;;;;5024490;28;20483;-67
2023/11/24 06:40:48;;;;;;;5.50;5.10;;;21.40;62.20;;;;;;5023716;28;20440;-67
2023/11/24 06:43:15;;;;;;;5.80;5.50;;;21.40;62.10;;;;;;5020975;28;20470;-67
2023/11/24 06:45:44;;;;;;;5.70;5.43;;;21.40;61.90;;;;;;5020798;28;20917;-68
2023/11/24 06:48:11;;;;;;;7.43;7.03;;;21.50;62.00;;;;;;5024096;28;21018;-67
2023/11/24 06:50:38;;;;;;;6.40;5.30;;;21.40;61.80;;;;;;5024171;28;20472;-67
2023/11/24 06:53:04;;;;;;;5.80;5.20;;;21.40;61.80;;;;;;5020902;28;20466;-68
2023/11/24 06:55:31;;;;;;;5.50;5.20;;;21.50;61.70;;;;;;5020661;28;20497;-67
2023/11/24 06:57:59;;;;;;;5.83;5.53;;;21.50;61.70;;;;;;5022810;28;20469;-68
2023/11/24 07:00:26;;;;;;;5.10;4.90;;;21.50;61.60;;;;;;5023896;28;20476;-67
2023/11/24 07:02:53;;;;;;;5.73;5.33;;;21.50;61.50;;;;;;5022334;28;20531;-67
2023/11/24 07:05:20;;;;;;;6.23;5.83;;;21.50;61.40;;;;;;5020469;28;20486;-68
2023/11/24 07:07:47;;;;;;;6.40;5.90;;;21.50;61.30;;;;;;5020903;28;20509;-67
2023/11/24 07:10:14;;;;;;;7.07;6.60;;;21.50;61.20;;;;;;5018716;28;20474;-66
2023/11/24 07:12:42;;;;;;;10.73;8.50;;;21.50;64.40;;;;;;5016366;28;20294;-66
2023/11/24 07:15:20;;;;;;;9.53;6.80;;;21.50;67.70;;;;;;5021261;28;20465;-66
2023/11/24 07:17:50;;;;;;;8.83;8.30;;;21.50;64.90;;;;;;5021859;28;20445;-68
2023/11/24 07:20:25;;;;;;;8.10;7.70;;;21.60;64.80;;;;;;5016743;28;20445;-68
2023/11/24 07:22:58;;;;;;;8.33;7.83;;;21.60;63.90;;;;;;5019412;28;20872;-68
2023/11/24 07:25:26;;;;;;;8.27;7.77;;;21.60;62.90;;;;;;5022624;28;20480;-70
2023/11/24 07:27:57;;;;;;;8.67;8.37;;;21.70;62.30;;;;;;5022235;28;20499;-67
2023/11/24 07:30:29;;;;;;;8.00;7.70;;;21.70;61.80;;;;;;5020292;28;20465;-69
2023/11/24 07:33:00;;;;;;;7.83;7.60;;;21.70;62.40;;;;;;5021805;28;20442;-68
2023/11/24 07:35:30;;;;;;;9.20;8.37;;;21.70;61.10;;;;;;5019859;28;20500;-68
2023/11/24 07:38:01;;;;;;;8.80;8.10;;;21.80;60.70;;;;;;5019092;28;20944;-68
2023/11/24 07:40:28;;;;;;;7.87;7.50;;;21.80;60.10;;;;;;5020136;28;20447;-68
2023/11/24 07:42:54;;;;;;;8.80;8.30;;;21.80;59.10;;;;;;5021384;28;20977;-68
2023/11/24 07:45:21;;;;;;;8.63;8.33;;;21.80;59.00;;;;;;5021855;28;20493;-68
2023/11/24 07:47:50;;;;;;;8.07;7.80;;;21.80;59.20;;;;;;5019318;28;20566;-67
2023/11/24 07:50:17;;;;;;;8.63;8.23;;;21.90;58.80;;;;;;4992410;28;20474;-68
2023/11/24 07:52:44;;;;;;;7.50;7.30;;;21.90;58.20;;;;;;4992531;28;20447;-68
2023/11/24 07:55:13;;;;;;;7.87;7.47;;;21.90;58.00;;;;;;4994439;28;20550;-67
2023/11/24 07:57:40;;;;;;;8.13;7.40;;;21.90;57.90;;;;;;5011922;28;20446;-69
2023/11/24 08:00:12;;;;;;;7.73;7.50;;;21.90;57.50;;;;;;5009314;28;20483;-67
2023/11/24 08:02:39;;;;;;;8.30;8.00;;;21.90;57.60;;;;;;4998656;28;20447;-67
2023/11/24 08:05:08;;;;;;;8.90;8.40;;;21.90;57.30;;;;;;4992259;28;20550;-68
2023/11/24 08:07:35;;;;;;;8.17;7.97;;;22.00;57.10;;;;;;4992097;28;20478;-66
2023/11/24 08:10:04;;;;;;;7.63;7.43;;;21.90;57.10;;;;;;5003021;28;20881;-68
2023/11/24 08:12:31;;;;;;;7.20;6.90;;;21.90;57.10;;;;;;5011884;28;20481;-69
2023/11/24 08:15:00;;;;;;;8.17;7.83;;;22.00;57.10;;;;;;5010111;28;20493;-67
2023/11/24 08:17:28;;;;;;;7.67;7.20;;;22.00;56.90;;;;;;5010822;28;20430;-67
2023/11/24 08:19:56;;;;;;;7.83;7.53;;;22.00;56.60;;;;;;4992214;28;20474;-70
2023/11/24 08:22:41;;;;;;;8.57;8.17;;;22.10;57.00;;;;;;4992166;28;20471;-69
2023/11/24 08:25:11;;;;;;;7.43;7.23;;;22.10;55.60;;;;;;4991962;28;20490;-69
2023/11/24 08:27:42;;;;;;;8.30;7.83;;;22.10;54.70;;;;;;4992430;28;20482;-70
2023/11/24 08:30:17;;;;;;;8.53;7.73;;;22.20;54.60;;;;;;4992493;28;20847;-67
2023/11/24 08:32:49;;;;;;;7.70;7.30;;;22.20;54.20;;;;;;4990838;28;20446;-69
2023/11/24 08:35:22;;;;;;;8.83;8.13;;;22.10;53.90;;;;;;4991938;28;20466;-67
2023/11/24 08:37:52;;;;;;;10.77;7.93;;;22.20;54.70;;;;;;4993775;28;20493;-67
2023/11/24 08:40:21;;;;;;;8.60;7.97;;;22.10;56.90;;;;;;5009821;28;20447;-69
2023/11/24 08:42:50;;;;;;;8.07;7.70;;;22.10;58.10;;;;;;4993464;28;20440;-70
2023/11/24 08:45:18;;;;;;;12.50;7.70;;;22.10;57.50;;;;;;5006881;28;20473;-70
2023/11/24 08:47:48;;;;;;;7.93;7.30;;;22.10;57.30;;;;;;4992717;28;20513;-70
2023/11/24 08:50:18;;;;;;;7.73;7.23;;;22.10;57.00;;;;;;4995388;28;20447;-70
2023/11/24 08:52:52;;;;;;;7.63;7.27;;;22.10;56.90;;;;;;4995464;28;20538;-70
2023/11/24 08:55:23;;;;;;;8.43;7.83;;;22.10;56.80;;;;;;4995143;28;20478;-70
2023/11/24 08:57:53;;;;;;;7.80;7.03;;;22.00;56.70;;;;;;4994040;28;20473;-70
2023/11/24 09:00:23;;;;;;;7.80;7.50;;;22.00;56.90;;;;;;4995349;28;20451;-69
2023/11/24 09:02:55;;;;;;;8.37;7.67;;;22.00;56.90;;;;;;4995046;28;20455;-71
2023/11/24 09:05:26;;;;;;;7.00;6.80;;;22.00;57.00;;;;;;4995201;28;20470;-70
2023/11/24 09:07:58;;;;;;;7.60;7.27;;;21.90;56.90;;;;;;4995006;28;20489;-70
2023/11/24 09:10:35;;;;;;;7.27;6.97;;;21.90;57.00;;;;;;4995040;28;20465;-70
2023/11/24 09:13:07;;;;;;;9.93;6.90;;;21.90;57.00;;;;;;4995008;28;20992;-70
2023/11/24 09:15:35;;;;;;;7.27;6.77;;;21.90;57.00;;;;;;4994878;28;20475;-69
2023/11/24 09:18:09;;;;;;;7.80;7.30;;;21.80;57.00;;;;;;4994960;28;20822;-70
2023/11/24 09:20:36;;;;;;;8.03;7.70;;;21.80;57.10;;;;;;4994891;28;20948;-70
2023/11/24 09:23:04;;;;;;;8.33;7.77;;;21.80;57.10;;;;;;4994760;28;20450;-70
2023/11/24 09:25:33;;;;;;;7.40;7.20;;;21.80;57.10;;;;;;4994732;28;20562;-70
2023/11/24 09:28:00;;;;;;;8.00;7.70;;;21.80;57.20;;;;;;4994768;28;20533;-69
2023/11/24 09:30:27;;;;;;;7.23;7.03;;;21.80;57.70;;;;;;4994654;28;20475;-70
2023/11/24 09:32:55;;;;;;;8.57;8.13;;;21.80;57.10;;;;;;4994733;28;20479;-70
2023/11/24 09:35:22;;;;;;;8.03;7.73;;;21.70;57.10;;;;;;4994472;28;20462;-70
2023/11/24 09:37:51;;;;;;;7.90;7.53;;;21.70;57.10;;;;;;4994482;28;20470;-70
2023/11/24 09:40:22;;;;;;;7.70;7.00;;;21.70;57.10;;;;;;4994502;28;20443;-70
2023/11/24 09:42:51;;;;;;;7.40;7.03;;;21.70;57.10;;;;;;4994549;28;20533;-70
2023/11/24 09:45:20;;;;;;;7.07;6.77;;;21.70;57.20;;;;;;4994444;28;20517;-70
2023/11/24 09:47:49;;;;;;;7.43;7.03;;;21.60;57.10;;;;;;4994396;28;20483;-70
2023/11/24 09:50:23;;;;;;;7.63;7.43;;;21.70;57.30;;;;;;4994250;28;20450;-70
2023/11/24 09:52:51;;;;;;;7.30;7.00;;;21.60;57.20;;;;;;4994206;28;20461;-70
2023/11/24 09:55:17;;;;;;;8.23;7.93;;;21.60;57.20;;;;;;4994027;28;20506;-70
2023/11/24 09:57:45;;;;;;;9.00;8.60;;;21.70;57.30;;;;;;4994172;28;20439;-69
2023/11/24 10:00:15;;;;;;;7.37;7.03;;;21.60;57.30;;;;;;4993212;28;20449;-69
2023/11/24 10:02:43;;;;;;;8.00;7.60;;;21.60;57.30;;;;;;4994159;28;20439;-69
2023/11/24 10:05:17;;;;;;;6.93;6.73;;;21.70;57.40;;;;;;4994183;28;20471;-69
2023/11/24 10:07:47;;;;;;;7.67;7.30;;;21.60;57.30;;;;;;4993899;28;21063;-69
2023/11/24 10:10:22;;;;;;;7.17;6.80;;;21.60;57.80;;;;;;4993877;28;20454;-69
2023/11/24 10:12:50;;;;;;;6.87;6.73;;;21.60;57.40;;;;;;4994035;28;20457;-69
2023/11/24 10:15:20;;;;;;;7.03;6.93;;;21.60;57.30;;;;;;4993829;28;20471;-70
2023/11/24 10:17:48;;;;;;;7.27;7.07;;;21.60;57.30;;;;;;4993875;28;20445;-70
2023/11/24 10:20:18;;;;;;;7.00;6.80;;;21.60;57.30;;;;;;4993860;28;20453;-70
2023/11/24 10:22:46;;;;;;;6.80;6.70;;;21.60;57.40;;;;;;4994116;28;20911;-70
2023/11/24 10:25:14;;;;;;;7.20;6.80;;;21.60;57.30;;;;;;4993600;28;20554;-70
2023/11/24 10:27:42;;;;;;;6.43;6.23;;;21.60;57.30;;;;;;4993620;28;20569;-69
2023/11/24 10:30:12;;;;;;;7.37;7.17;;;21.60;57.20;;;;;;4993625;28;20447;-70
2023/11/24 10:32:43;;;;;;;8.00;7.70;;;21.60;57.30;;;;;;4993615;28;20501;-69
2023/11/24 10:35:12;;;;;;;7.80;7.50;;;21.60;57.20;;;;;;4993486;28;20494;-70
2023/11/24 10:37:41;;;;;;;7.47;7.30;;;21.60;57.20;;;;;;4993369;28;20447;-70
2023/11/24 10:40:10;;;;;;;7.47;7.27;;;21.50;57.10;;;;;;4993430;28;20486;-70
2023/11/24 10:42:39;;;;;;;7.37;7.10;;;21.50;57.10;;;;;;4993330;28;20958;-70
2023/11/24 10:45:10;;;;;;;6.60;6.40;;;21.50;57.10;;;;;;4993359;28;20530;-70
2023/11/24 10:47:45;;;;;;;6.60;6.50;;;21.50;57.10;;;;;;4993175;28;20541;-70
2023/11/24 10:50:14;;;;;;;6.90;6.70;;;21.50;57.00;;;;;;4993310;28;20485;-70
2023/11/24 10:52:48;;;;;;;7.47;7.17;;;21.50;57.10;;;;;;4993150;28;20443;-70
2023/11/24 10:55:16;;;;;;;7.13;6.73;;;21.50;57.00;;;;;;4992966;28;20974;-70
2023/11/24 10:57:43;;;;;;;7.70;7.20;;;21.50;57.00;;;;;;4993074;28;20497;-69
2023/11/24 11:00:14;;;;;;;6.97;6.80;;;21.50;57.00;;;;;;4993144;28;20535;-69
2023/11/24 11:02:43;;;;;;;7.00;6.90;;;21.50;57.00;;;;;;4992931;28;20473;-69
2023/11/24 11:05:19;;;;;;;6.70;6.50;;;21.50;57.00;;;;;;4992802;28;20498;-69
2023/11/24 11:07:53;;;;;;;6.63;6.43;;;21.40;56.90;;;;;;4992872;28;20572;-69
2023/11/24 11:10:25;;;;;;;6.60;6.50;;;21.40;56.80;;;;;;4992943;28;20452;-69
2023/11/24 11:12:53;;;;;;;7.07;6.80;;;21.40;56.80;;;;;;4992876;28;20446;-70
2023/11/24 11:15:24;;;;;;;7.17;6.97;;;21.40;56.90;;;;;;4992719;28;20491;-70
2023/11/24 11:20:45;;;;;;;6.50;6.40;;;21.40;56.90;;;;;;5150614;27;20526;-71
2023/11/24 11:23:15;;;;;;;6.67;6.53;;;21.40;56.90;;;;;;5150348;27;20463;-71
2023/11/24 11:25:46;;;;;;;6.43;6.27;;;21.40;56.90;;;;;;5150593;27;20460;-71
2023/11/24 11:28:35;;;;;;;6.90;6.70;;;21.40;56.80;;;;;;5150252;27;20523;-71
2023/11/24 11:31:27;;;;;;;7.47;7.17;;;21.40;56.90;;;;;;5150272;27;20435;-71
2023/11/24 11:33:54;;;;;;;6.60;6.50;;;21.40;56.90;;;;;;5150261;27;20448;-71
2023/11/24 11:36:26;;;;;;;6.70;6.60;;;21.40;56.90;;;;;;5150057;27;20942;-71
2023/11/24 11:38:55;;;;;;;6.43;6.33;;;21.40;56.80;;;;;;5150019;27;20489;-72
2023/11/24 11:41:37;;;;;;;6.30;6.20;;;21.40;57.00;;;;;;5150203;27;20447;-71
2023/11/24 11:44:17;;;;;;;6.43;6.23;;;21.40;56.90;;;;;;5149933;27;20460;-72
2023/11/24 11:47:03;;;;;;;5.53;5.43;;;21.40;56.90;;;;;;5150029;27;20518;-71
2023/11/24 11:49:32;;;;;;;6.30;6.20;;;21.40;56.90;;;;;;5143273;27;20428;-71
2023/11/24 11:52:06;;;;;;;7.33;7.23;;;21.50;56.90;;;;;;5149941;27;20447;-71
2023/11/24 11:54:34;;;;;;;7.23;7.13;;;21.40;56.90;;;;;;5149777;27;20476;-72
2023/11/24 11:57:01;;;;;;;7.40;7.10;;;21.40;56.80;;;;;;5149610;27;20927;-71
2023/11/24 11:59:28;;;;;;;7.70;7.50;;;21.40;56.80;;;;;;5149782;27;20474;-71
2023/11/24 12:01:55;;;;;;;7.40;7.10;;;21.50;56.80;;;;;;5149534;27;20978;-71
2023/11/24 12:04:22;;;;;;;6.70;6.60;;;21.40;56.80;;;;;;5149628;27;20936;-71
2023/11/24 12:06:51;;;;;;;7.43;7.30;;;21.40;56.70;;;;;;5149502;27;20883;-71
2023/11/24 12:09:20;;;;;;;6.93;6.83;;;21.40;56.70;;;;;;5141196;27;20798;-71
2023/11/24 12:11:47;;;;;;;7.30;7.20;;;21.40;56.70;;;;;;5149651;27;20479;-71
2023/11/24 12:14:14;;;;;;;7.50;7.30;;;21.40;56.70;;;;;;5149276;27;20517;-71
2023/11/24 12:16:42;;;;;;;6.90;6.80;;;21.40;56.70;;;;;;5149381;27;20867;-71
2023/11/24 12:19:10;;;;;;;6.77;6.67;;;21.40;56.60;;;;;;5149079;27;20507;-71
2023/11/24 12:21:38;;;;;;;6.93;6.83;;;21.40;56.60;;;;;;5149339;27;20440;-71
2023/11/24 12:24:05;;;;;;;7.10;7.00;;;21.40;56.60;;;;;;5149113;27;20464;-71
2023/11/24 12:26:35;;;;;;;7.57;7.37;;;21.40;56.50;;;;;;5149193;27;20444;-72
2023/11/24 12:29:02;;;;;;;7.00;6.80;;;21.40;56.50;;;;;;5149154;27;20474;-71
2023/11/24 12:31:29;;;;;;;7.23;7.13;;;21.40;56.50;;;;;;5138790;27;20493;-72
2023/11/24 12:33:56;;;;;;;7.10;7.00;;;21.40;56.50;;;;;;5135205;27;20982;-72
2023/11/24 12:36:24;;;;;;;8.20;8.00;;;21.40;56.50;;;;;;5135154;27;20447;-71
2023/11/24 12:38:51;;;;;;;7.00;6.90;;;21.40;56.50;;;;;;5135155;27;20476;-72
2023/11/24 12:41:18;;;;;;;8.10;8.00;;;21.40;56.50;;;;;;5135077;27;20490;-72
2023/11/24 12:43:59;;;;;;;7.20;7.10;;;21.40;56.40;;;;;;5135036;27;20476;-72
2023/11/24 12:46:26;;;;;;;10.17;9.53;;;21.40;56.40;;;;;;5127481;27;20447;-72
2023/11/24 12:49:02;;;;;;;6.77;6.67;;;21.40;56.40;;;;;;5134951;27;20440;-72
2023/11/24 12:51:29;;;;;;;6.63;6.53;;;21.40;56.30;;;;;;5127934;27;20437;-72
2023/11/24 12:53:57;;;;;;;7.77;7.67;;;21.40;56.40;;;;;;5134756;27;20440;-72
2023/11/24 12:56:24;;;;;;;6.97;6.87;;;21.40;56.40;;;;;;5134933;27;20464;-71